Time;durP1;ratioP1;P1;durP2;ratioP2;P2;SDS_P1;SDS_P2;PMS_P1;PMS_P2;Temp;Humidity;BMP_temperature;BMP_pressure;BME280_temperature;BME280_humidity;BME280_pressure;Samples;Min_cycle;Max_cycle;Signal;HPM_P1;HPM_P2
2021/10/18 00:00:53;;;;;;;0.75;0.50;;;;;;;0.09;96.05;101848.84;4802660;29;20038;-79
2021/10/18 00:03:19;;;;;;;2.75;0.50;;;;;;;0.26;96.11;101877.66;4792693;29;20039;-79
2021/10/18 00:05:45;;;;;;;2.35;0.70;;;;;;;0.21;96.32;101864.75;4774679;29;20125;-78
2021/10/18 00:08:10;;;;;;;2.88;0.75;;;;;;;0.18;96.33;101862.31;4791750;29;20031;-79
2021/10/18 00:10:36;;;;;;;1.77;0.60;;;;;;;0.20;96.22;101872.81;4808356;29;20058;-79
2021/10/18 00:13:02;;;;;;;1.42;0.60;;;;;;;-0.93;96.10;101674.25;4790691;29;20057;-79
2021/10/18 00:15:27;;;;;;;1.50;0.52;;;;;;;0.27;96.39;101868.78;4808400;29;20059;-79
2021/10/18 00:17:53;;;;;;;4.35;0.60;;;;;;;0.27;96.22;101871.44;4790476;29;20111;-79
2021/10/18 00:20:20;;;;;;;1.30;0.73;;;;;;;0.17;96.34;101865.91;4791968;29;20461;-79
2021/10/18 00:22:45;;;;;;;3.35;0.93;;;;;;;0.18;96.46;101872.88;4779977;29;20370;-78
2021/10/18 00:25:11;;;;;;;1.92;0.88;;;;;;;0.13;96.61;101871.50;4796249;29;20027;-79
2021/10/18 00:27:37;;;;;;;1.90;1.00;;;;;;;-0.11;96.62;101834.34;4811306;29;20458;-79
2021/10/18 00:30:04;;;;;;;2.45;1.20;;;;;;;-0.08;96.54;101858.78;4809142;29;20038;-78
2021/10/18 00:32:30;;;;;;;2.75;1.30;;;;;;;-0.29;96.61;101828.50;4773331;30;20247;-79
2021/10/18 00:34:55;;;;;;;3.30;1.00;;;;;;;-0.02;96.95;101874.25;4774300;30;20699;-79
2021/10/18 00:37:20;;;;;;;1.75;1.00;;;;;;;-0.15;96.61;101867.25;4773134;29;20717;-79
2021/10/18 00:39:46;;;;;;;2.58;1.00;;;;;;;-0.04;96.68;101885.88;4791437;29;20046;-78
2021/10/18 00:42:12;;;;;;;1.95;1.00;;;;;;;-0.07;96.79;101881.63;4791108;29;20063;-78
2021/10/18 00:44:39;;;;;;;1.85;0.80;;;;;;;0.06;96.86;101892.25;4805436;29;20046;-79
2021/10/18 00:47:05;;;;;;;1.77;0.70;;;;;;;0.13;96.50;101887.38;4807314;29;20470;-79
2021/10/18 00:49:30;;;;;;;1.33;0.70;;;;;;;0.13;96.60;101884.75;4757280;30;20039;-79
2021/10/18 00:51:57;;;;;;;1.23;0.80;;;;;;;0.16;96.39;101895.97;4783693;29;20035;-79
2021/10/18 00:54:22;;;;;;;1.42;0.93;;;;;;;0.13;96.85;101884.75;4776781;29;20045;-79
2021/10/18 00:56:48;;;;;;;1.73;0.95;;;;;;;-0.05;96.58;101853.28;4791050;29;20034;-79
2021/10/18 00:59:14;;;;;;;4.57;1.13;;;;;;;0.10;96.48;101888.47;4792358;29;20115;-78
2021/10/18 01:01:40;;;;;;;1.48;0.55;;;;;;;-0.02;96.99;101860.19;4803460;29;20377;-79
2021/10/18 01:04:06;;;;;;;3.67;0.60;;;;;;;0.14;96.62;101889.09;4807725;29;20092;-79
2021/10/18 01:06:31;;;;;;;2.47;0.70;;;;;;;0.15;96.82;101894.28;4774619;29;20157;-78
2021/10/18 01:08:57;;;;;;;2.88;0.75;;;;;;;0.04;96.80;101874.81;4807080;29;20100;-79
2021/10/18 01:11:23;;;;;;;2.60;0.70;;;;;;;0.18;97.19;101898.50;4772770;30;20036;-79
2021/10/18 01:13:48;;;;;;;2.53;0.80;;;;;;;0.16;97.12;101881.88;4790347;30;20170;-79
2021/10/18 01:16:15;;;;;;;1.10;0.68;;;;;;;0.24;97.34;101890.16;4789945;29;20031;-79
2021/10/18 01:18:41;;;;;;;1.30;0.60;;;;;;;0.26;97.28;101875.00;4774965;30;20035;-79
2021/10/18 01:21:08;;;;;;;1.98;0.90;;;;;;;0.39;96.93;101891.72;4775719;29;20037;-80
2021/10/18 01:23:33;;;;;;;1.95;0.73;;;;;;;0.57;97.02;101899.38;4806708;29;20424;-79
2021/10/18 01:25:59;;;;;;;1.48;0.70;;;;;;;0.63;97.19;101894.50;4791304;29;20110;-79
2021/10/18 01:28:25;;;;;;;2.20;0.60;;;;;;;0.80;97.20;101914.50;4807108;29;20492;-79
2021/10/18 01:30:50;;;;;;;1.88;0.77;;;;;;;0.84;96.73;101913.31;4789442;29;20038;-79
2021/10/18 01:33:16;;;;;;;2.67;1.00;;;;;;;0.52;96.75;101851.16;4808738;29;20465;-79
2021/10/18 01:35:42;;;;;;;1.40;0.90;;;;;;;0.64;96.92;101871.50;4767241;29;20031;-79
2021/10/18 01:38:07;;;;;;;4.25;0.98;;;;;;;0.83;97.05;101903.69;4808035;29;20042;-79
2021/10/18 01:40:33;;;;;;;1.38;0.70;;;;;;;0.72;96.87;101890.31;4792700;29;20069;-79
2021/10/18 01:42:58;;;;;;;1.27;0.82;;;;;;;0.84;96.88;101910.66;4775578;29;20091;-79
2021/10/18 01:45:24;;;;;;;1.33;0.70;;;;;;;0.92;96.89;101918.91;4777964;29;20039;-79
2021/10/18 01:47:49;;;;;;;1.63;0.93;;;;;;;0.88;96.83;101906.84;4806809;29;20061;-79
2021/10/18 01:50:19;;;;;;;1.75;0.80;;;;;;;0.90;97.01;101907.59;4777385;29;20039;-79
2021/10/18 01:52:46;;;;;;;1.45;0.60;;;;;;;0.96;96.88;101916.03;4807105;29;20092;-79
2021/10/18 01:55:12;;;;;;;1.10;0.60;;;;;;;0.98;97.05;101916.78;4771334;30;20027;-79
2021/10/18 01:57:39;;;;;;;2.03;0.75;;;;;;;0.97;96.99;101920.41;4788346;29;20031;-79
2021/10/18 02:00:05;;;;;;;4.53;0.75;;;;;;;0.97;96.86;101925.69;4791109;29;20038;-79
2021/10/18 02:02:31;;;;;;;1.70;1.05;;;;;;;0.94;97.00;101924.09;4826546;29;20125;-78
2021/10/18 02:05:03;;;;;;;1.33;0.70;;;;;;;0.91;96.94;101927.81;4831229;29;20213;-79
2021/10/18 02:07:28;;;;;;;3.55;1.02;;;;;;;0.81;97.12;101910.03;4784205;29;20039;-79
2021/10/18 02:09:54;;;;;;;1.65;0.75;;;;;;;0.78;96.77;101905.78;4813486;29;20523;-79
2021/10/18 02:12:20;;;;;;;3.13;0.90;;;;;;;0.60;96.84;101875.31;4811195;29;20031;-79
2021/10/18 02:14:46;;;;;;;1.83;0.80;;;;;;;0.85;97.09;101917.66;4781751;29;20034;-79
2021/10/18 02:17:11;;;;;;;2.85;0.90;;;;;;;0.74;97.04;101904.31;4795518;29;20104;-79
2021/10/18 02:19:37;;;;;;;1.08;0.60;;;;;;;0.80;97.25;101925.09;4798330;29;20047;-80
2021/10/18 02:22:02;;;;;;;2.70;0.70;;;;;;;0.72;96.98;101924.75;4812952;29;20027;-79
2021/10/18 02:24:27;;;;;;;3.17;1.10;;;;;;;0.76;97.48;101920.94;4799416;29;20042;-79
2021/10/18 02:26:53;;;;;;;1.23;0.73;;;;;;;0.74;97.68;101917.56;4809614;29;20576;-79
2021/10/18 02:29:18;;;;;;;1.65;0.80;;;;;;;0.76;97.23;101928.03;4813370;29;20035;-79
2021/10/18 02:31:44;;;;;;;1.30;0.80;;;;;;;0.76;97.34;101930.69;4794062;29;20066;-80
2021/10/18 02:34:09;;;;;;;1.30;0.65;;;;;;;0.74;97.66;101935.28;4797480;29;20366;-79
2021/10/18 02:36:34;;;;;;;1.35;0.60;;;;;;;0.70;97.46;101938.13;4796750;29;20130;-79
2021/10/18 02:39:00;;;;;;;2.95;0.70;;;;;;;0.40;97.70;101893.44;4810035;29;20043;-79
2021/10/18 02:41:27;;;;;;;1.95;0.80;;;;;;;0.54;97.55;101921.63;4799484;29;20066;-79
2021/10/18 02:43:52;;;;;;;1.25;0.60;;;;;;;0.60;97.56;101934.44;4782063;29;20031;-79
2021/10/18 02:46:18;;;;;;;2.08;0.73;;;;;;;0.55;97.89;101927.75;4794833;29;20031;-79
2021/10/18 02:48:43;;;;;;;1.83;0.55;;;;;;;0.48;97.79;101922.03;4782774;29;20116;-80
2021/10/18 02:51:08;;;;;;;3.15;0.60;;;;;;;0.41;98.01;101924.25;4796726;29;20502;-78
2021/10/18 02:53:34;;;;;;;0.90;0.60;;;;;;;0.18;97.94;101894.06;4813291;29;20023;-79
2021/10/18 02:55:59;;;;;;;3.75;0.70;;;;;;;0.30;97.90;101916.22;4795188;29;20035;-79
2021/10/18 02:58:24;;;;;;;2.30;0.50;;;;;;;0.26;98.06;101924.44;4781699;29;20035;-79
2021/10/18 03:00:50;;;;;;;3.47;0.55;;;;;;;0.11;98.22;101907.84;4808904;29;20478;-79
2021/10/18 03:03:16;;;;;;;0.90;0.40;;;;;;;0.21;98.35;101927.44;4812804;29;20034;-79
2021/10/18 03:05:42;;;;;;;1.55;0.57;;;;;;;0.18;98.40;101919.69;4811676;29;20113;-79
2021/10/18 03:08:07;;;;;;;2.80;0.45;;;;;;;0.26;98.22;101925.28;4796834;29;20065;-78
2021/10/18 03:10:33;;;;;;;1.95;0.70;;;;;;;0.17;98.07;101926.78;4811803;29;20378;-79
2021/10/18 03:12:59;;;;;;;1.33;0.47;;;;;;;0.09;98.54;101922.94;4807029;29;20251;-79
2021/10/18 03:15:25;;;;;;;1.70;0.70;;;;;;;0.14;98.59;101936.75;4795759;29;20062;-79
2021/10/18 03:17:51;;;;;;;1.25;0.70;;;;;;;0.02;98.80;101942.84;4806934;29;20039;-79
2021/10/18 03:20:17;;;;;;;2.25;0.90;;;;;;;-0.10;98.66;101955.09;4793901;29;20058;-79
2021/10/18 03:22:42;;;;;;;1.52;0.90;;;;;;;-0.25;98.81;101951.66;4808853;29;20030;-79
2021/10/18 03:25:09;;;;;;;2.55;0.95;;;;;;;-0.36;98.92;101960.31;4791495;29;20493;-79
2021/10/18 03:27:34;;;;;;;1.60;0.90;;;;;;;-0.41;98.86;101961.53;4812225;29;20083;-78
2021/10/18 03:30:00;;;;;;;2.90;1.00;;;;;;;-0.63;99.06;101939.16;4811068;29;20023;-79
2021/10/18 03:32:27;;;;;;;2.17;0.90;;;;;;;-0.50;99.15;101960.34;4793932;29;20035;-79
2021/10/18 03:34:52;;;;;;;2.45;1.08;;;;;;;-0.60;99.18;101954.78;4778763;29;20038;-79
2021/10/18 03:37:17;;;;;;;3.50;0.75;;;;;;;-0.74;99.16;101933.69;4792415;29;20481;-79
2021/10/18 03:39:43;;;;;;;1.92;0.93;;;;;;;-0.59;98.87;101958.31;4792243;29;20043;-79
2021/10/18 03:42:08;;;;;;;2.20;1.00;;;;;;;-0.59;99.50;101963.59;4814001;29;20051;-79
2021/10/18 03:44:34;;;;;;;3.70;0.90;;;;;;;-0.62;99.44;101966.44;4777319;29;20552;-78
2021/10/18 03:46:59;;;;;;;2.17;0.68;;;;;;;-0.68;99.70;101948.31;4792096;29;20170;-78
2021/10/18 03:49:25;;;;;;;1.38;0.73;;;;;;;-0.53;99.32;101964.03;4807054;29;20045;-79
2021/10/18 03:51:50;;;;;;;1.83;0.90;;;;;;;-0.50;99.36;101961.22;4808498;29;20071;-79
2021/10/18 03:54:17;;;;;;;2.60;0.82;;;;;;;-0.59;99.30;101951.22;4791601;29;20107;-79
2021/10/18 03:56:42;;;;;;;3.38;1.02;;;;;;;-0.83;99.58;101913.13;4777784;29;20037;-79
2021/10/18 03:59:08;;;;;;;3.25;1.00;;;;;;;-0.58;99.75;101966.13;4792566;29;20039;-79
2021/10/18 04:01:34;;;;;;;2.15;0.80;;;;;;;-0.88;99.49;101910.78;4792883;29;20358;-79
2021/10/18 04:03:59;;;;;;;1.27;0.75;;;;;;;-0.55;99.65;101967.72;4795342;29;20135;-79
2021/10/18 04:06:24;;;;;;;1.17;0.80;;;;;;;-0.53;99.68;101961.41;4802956;29;20049;-78
2021/10/18 04:08:51;;;;;;;1.95;0.80;;;;;;;-0.50;99.79;101974.44;4790395;29;20144;-79
2021/10/18 04:11:17;;;;;;;1.23;0.88;;;;;;;-0.66;100.00;101944.63;4807338;29;20179;-79
2021/10/18 04:13:42;;;;;;;2.15;0.90;;;;;;;-0.98;100.00;101899.97;4805675;29;20117;-79
2021/10/18 04:16:08;;;;;;;1.17;0.75;;;;;;;-0.55;100.00;101983.59;4790762;29;20058;-80
2021/10/18 04:18:34;;;;;;;1.13;0.68;;;;;;;-0.60;100.00;101983.03;4791166;29;20087;-79
2021/10/18 04:21:02;;;;;;;2.40;0.90;;;;;;;-0.68;100.00;101988.81;4791196;29;20048;-79
2021/10/18 04:23:28;;;;;;;3.53;0.80;;;;;;;-0.84;100.00;101967.78;4779962;29;20447;-79
2021/10/18 04:25:54;;;;;;;1.17;0.70;;;;;;;-0.89;100.00;101971.63;4802729;29;20039;-79
2021/10/18 04:28:20;;;;;;;2.90;0.80;;;;;;;-0.80;100.00;101979.00;4808436;29;20124;-79
2021/10/18 04:30:45;;;;;;;1.65;0.60;;;;;;;-0.75;100.00;101987.50;4792866;29;20066;-79
2021/10/18 04:33:11;;;;;;;3.90;0.82;;;;;;;-0.83;100.00;101984.47;4777585;29;20058;-78
2021/10/18 04:35:37;;;;;;;1.33;0.60;;;;;;;-0.92;100.00;101967.41;4805905;29;20102;-78
2021/10/18 04:38:02;;;;;;;1.40;0.60;;;;;;;-1.03;100.00;101959.31;4813446;29;20453;-79
2021/10/18 04:40:28;;;;;;;1.92;0.68;;;;;;;-0.79;100.00;102002.69;4804661;29;20104;-79
2021/10/18 04:42:53;;;;;;;1.25;0.70;;;;;;;-0.78;100.00;102004.38;4789681;29;20133;-80
2021/10/18 04:45:19;;;;;;;2.75;1.40;;;;;;;-0.87;100.00;101985.63;4771210;30;20043;-78
2021/10/18 04:47:47;;;;;;;2.95;1.10;;;;;;;-0.98;100.00;101957.22;4796434;29;20503;-80
2021/10/18 04:50:14;;;;;;;2.20;1.30;;;;;;;-0.84;100.00;101993.34;4786514;29;20496;-80
2021/10/18 04:52:39;;;;;;;2.70;1.33;;;;;;;-0.75;100.00;101998.91;4805784;29;20050;-80
2021/10/18 04:55:05;;;;;;;1.73;1.20;;;;;;;-0.76;100.00;102005.16;4774395;29;20031;-78
2021/10/18 04:57:31;;;;;;;2.40;1.10;;;;;;;-0.79;100.00;101999.22;4797308;29;20047;-79
2021/10/18 04:59:57;;;;;;;1.73;1.08;;;;;;;-0.86;100.00;101997.88;4787696;29;20035;-78
2021/10/18 05:02:23;;;;;;;3.45;1.02;;;;;;;-0.85;100.00;102011.00;4787821;29;20454;-79
2021/10/18 05:04:48;;;;;;;1.98;1.10;;;;;;;-0.87;100.00;102009.41;4801097;29;20172;-78
2021/10/18 05:07:14;;;;;;;3.55;1.13;;;;;;;-0.90;100.00;102007.78;4786763;29;20038;-79
2021/10/18 05:09:40;;;;;;;2.15;1.27;;;;;;;-0.92;100.00;102000.94;4775836;29;20039;-79
2021/10/18 05:12:06;;;;;;;2.80;0.95;;;;;;;-1.02;100.00;101985.63;4778004;29;20038;-78
2021/10/18 05:14:31;;;;;;;3.38;1.10;;;;;;;-1.02;100.00;101993.56;4772554;29;20054;-79
2021/10/18 05:16:57;;;;;;;1.83;0.98;;;;;;;-1.05;100.00;101984.97;4776599;29;20038;-79
2021/10/18 05:19:22;;;;;;;1.75;1.10;;;;;;;-0.93;100.00;102012.41;4761936;29;20560;-79
2021/10/18 05:21:49;;;;;;;2.15;1.10;;;;;;;-1.00;100.00;102001.38;4779806;29;20055;-80
2021/10/18 05:24:15;;;;;;;1.73;1.00;;;;;;;-1.07;100.00;101990.34;4808859;29;20037;-80
2021/10/18 05:26:42;;;;;;;5.32;1.42;;;;;;;-0.86;100.00;102019.88;4805813;29;20047;-80
2021/10/18 05:29:08;;;;;;;1.85;0.93;;;;;;;-0.70;100.00;102019.75;4807315;29;20039;-79
2021/10/18 05:31:34;;;;;;;4.50;1.40;;;;;;;-0.66;100.00;102010.72;4775285;29;20031;-79
2021/10/18 05:33:59;;;;;;;2.33;1.00;;;;;;;-0.70;100.00;102014.47;4792000;29;20031;-80
2021/10/18 05:36:26;;;;;;;3.45;1.10;;;;;;;-0.77;100.00;102002.59;4774938;29;20453;-81
2021/10/18 05:38:52;;;;;;;4.32;1.15;;;;;;;-0.68;100.00;102020.53;4792387;29;20037;-79
2021/10/18 05:41:18;;;;;;;1.42;0.90;;;;;;;-0.82;100.00;101999.41;4787152;29;20173;-80
2021/10/18 05:43:43;;;;;;;6.15;1.15;;;;;;;-1.09;100.00;101951.75;4773663;29;20400;-79
2021/10/18 05:46:09;;;;;;;3.47;0.98;;;;;;;-0.63;100.00;102025.50;4808706;29;20031;-79
2021/10/18 05:48:35;;;;;;;3.22;1.05;;;;;;;-0.61;100.00;102034.19;4808087;29;20026;-79
2021/10/18 05:51:00;;;;;;;2.85;1.20;;;;;;;-0.67;100.00;102022.22;4769939;29;20043;-79
2021/10/18 05:53:27;;;;;;;3.05;1.40;;;;;;;-0.60;100.00;102036.72;4788636;29;20413;-79
2021/10/18 05:55:52;;;;;;;5.05;1.48;;;;;;;-0.79;100.00;102015.06;4803226;29;20354;-79
2021/10/18 05:58:18;;;;;;;2.83;1.20;;;;;;;-0.73;100.00;102028.75;4772892;30;20039;-80
2021/10/18 06:00:45;;;;;;;4.47;1.23;;;;;;;-0.69;100.00;102039.13;4775979;29;20389;-79
2021/10/18 06:03:12;;;;;;;3.75;1.20;;;;;;;-0.61;100.00;102047.41;4807588;29;20038;-80
2021/10/18 06:05:43;;;;;;;2.20;1.10;;;;;;;-0.57;100.00;102043.63;4790445;29;20103;-80
2021/10/18 06:08:11;;;;;;;3.72;1.40;;;;;;;-0.55;100.00;102041.75;4804647;29;20031;-79
2021/10/18 06:10:37;;;;;;;2.15;1.27;;;;;;;-0.54;100.00;102051.38;4776633;29;20041;-80
2021/10/18 06:13:10;;;;;;;4.07;1.10;;;;;;;-0.53;100.00;102053.94;4775729;29;20031;-79
2021/10/18 06:15:36;;;;;;;2.17;0.90;;;;;;;-0.57;100.00;102046.28;4773502;29;20041;-79
2021/10/18 06:18:12;;;;;;;1.77;0.85;;;;;;;-0.54;100.00;102056.66;4806444;29;20034;-79
2021/10/18 06:20:39;;;;;;;2.38;1.00;;;;;;;-0.71;100.00;102037.41;4788004;29;20050;-80
2021/10/18 06:23:04;;;;;;;5.15;2.00;;;;;;;-0.56;100.00;102072.63;4806992;29;20353;-79
2021/10/18 06:25:32;;;;;;;2.97;1.52;;;;;;;-0.54;100.00;102064.59;4805294;29;20046;-80
2021/10/18 06:27:59;;;;;;;3.67;1.20;;;;;;;-0.57;100.00;102068.28;4775977;29;20064;-80
2021/10/18 06:30:26;;;;;;;3.40;1.25;;;;;;;-0.85;100.00;102040.06;4787959;29;20059;-79
2021/10/18 06:32:53;;;;;;;7.10;1.35;;;;;;;-0.66;100.00;102083.84;4807844;29;20052;-79
2021/10/18 06:35:20;;;;;;;3.22;1.25;;;;;;;-0.75;100.00;102080.00;4807073;29;20035;-80
2021/10/18 06:37:45;;;;;;;2.80;1.25;;;;;;;-0.72;100.00;102090.38;4777688;29;20035;-80
2021/10/18 06:40:11;;;;;;;3.65;1.42;;;;;;;-0.85;100.00;102079.72;4790325;29;20122;-80
2021/10/18 06:42:38;;;;;;;5.07;2.15;;;;;;;-0.93;100.00;102052.03;4805144;29;20042;-79
2021/10/18 06:45:04;;;;;;;6.38;2.45;;;;;;;-0.80;100.00;102079.41;4792711;29;20062;-80
2021/10/18 06:47:29;;;;;;;12.43;5.00;;;;;;;-0.84;100.00;102068.19;4797902;29;20046;-80
2021/10/18 06:49:57;;;;;;;7.30;3.90;;;;;;;-0.63;100.00;102095.13;4795714;29;20096;-79
2021/10/18 06:52:23;;;;;;;4.40;2.80;;;;;;;-0.63;100.00;102084.53;4794018;29;20529;-79
2021/10/18 06:54:49;;;;;;;7.35;2.20;;;;;;;-0.45;100.00;102100.19;4790180;29;20038;-80
2021/10/18 06:57:14;;;;;;;4.32;2.05;;;;;;;-0.39;100.00;102092.72;4797894;29;20045;-79
2021/10/18 06:59:39;;;;;;;5.28;1.80;;;;;;;-0.35;100.00;102086.28;4799062;29;20038;-81
2021/10/18 07:02:05;;;;;;;3.92;1.67;;;;;;;-0.26;100.00;102098.94;4776697;30;20027;-80
2021/10/18 07:04:33;;;;;;;3.08;1.42;;;;;;;-0.13;100.00;102098.13;4791341;29;20034;-79
2021/10/18 07:07:02;;;;;;;2.67;1.30;;;;;;;-0.48;100.00;102028.03;4794221;29;20042;-79
2021/10/18 07:09:28;;;;;;;3.55;1.60;;;;;;;0.04;100.00;102095.28;4776518;30;20541;-80
2021/10/18 07:11:55;;;;;;;5.20;1.63;;;;;;;0.22;100.00;102109.94;4804543;29;20049;-79
2021/10/18 07:14:21;;;;;;;3.92;1.45;;;;;;;0.32;100.00;102115.50;4809907;29;20038;-79
2021/10/18 07:16:46;;;;;;;2.90;1.50;;;;;;;0.35;100.00;102104.72;4792135;29;20038;-80
2021/10/18 07:19:12;;;;;;;2.33;1.45;;;;;;;0.51;100.00;102117.78;4779766;29;20671;-80
2021/10/18 07:21:37;;;;;;;4.65;1.20;;;;;;;0.59;99.96;102112.81;4792860;29;20466;-80
2021/10/18 07:24:05;;;;;;;4.13;1.05;;;;;;;0.67;99.91;102114.97;4777125;29;20474;-80
2021/10/18 07:26:31;;;;;;;1.50;0.95;;;;;;;0.57;99.73;102077.66;4761368;30;20031;-80
2021/10/18 07:28:57;;;;;;;4.13;1.40;;;;;;;0.90;99.63;102116.94;4745989;30;20035;-79
2021/10/18 07:31:22;;;;;;;2.72;1.20;;;;;;;1.04;99.34;102125.75;4784649;29;20042;-80
2021/10/18 07:33:48;;;;;;;3.78;1.35;;;;;;;1.16;99.04;102132.88;4793709;29;20042;-80
2021/10/18 07:36:22;;;;;;;2.38;1.13;;;;;;;1.17;98.78;102113.34;4777213;29;20035;-80
2021/10/18 07:38:49;;;;;;;3.28;1.10;;;;;;;1.39;98.65;102121.50;4779425;29;20038;-80
2021/10/18 07:41:15;;;;;;;4.80;1.80;;;;;;;1.62;98.13;102126.97;4794104;29;20478;-79
2021/10/18 07:43:42;;;;;;;5.32;1.80;;;;;;;1.80;97.58;102125.69;4791692;29;20042;-80
2021/10/18 07:46:07;;;;;;;4.65;1.95;;;;;;;1.92;97.59;102121.31;4810435;29;20045;-79
2021/10/18 07:48:33;;;;;;;4.18;2.00;;;;;;;2.02;97.03;102119.69;4792672;29;20039;-80
2021/10/18 07:51:00;;;;;;;6.90;2.42;;;;;;;2.08;97.21;102123.69;4776679;29;20473;-80
2021/10/18 07:53:26;;;;;;;5.38;2.22;;;;;;;2.25;96.68;102136.59;4779495;29;20063;-79
2021/10/18 07:55:51;;;;;;;7.22;1.85;;;;;;;2.38;96.48;102138.34;4792365;29;20040;-80
2021/10/18 07:58:16;;;;;;;4.32;1.98;;;;;;;2.53;95.61;102139.88;4793013;29;20092;-79
2021/10/18 08:00:42;;;;;;;3.55;1.65;;;;;;;2.64;96.16;102139.91;4792354;29;20097;-80
2021/10/18 08:03:07;;;;;;;3.92;1.70;;;;;;;2.79;95.32;102144.09;4762644;30;20059;-80
2021/10/18 08:05:33;;;;;;;2.28;1.30;;;;;;;2.80;95.36;102134.28;4780637;30;20045;-79
2021/10/18 08:07:59;;;;;;;4.13;1.30;;;;;;;3.00;94.55;102149.59;4780917;29;20035;-80
2021/10/18 08:10:24;;;;;;;8.18;1.48;;;;;;;2.89;94.95;102112.34;4762858;30;20121;-80
2021/10/18 08:13:09;;;;;;;3.08;1.10;;;;;;;3.28;94.52;102144.81;4778444;29;20122;-80
2021/10/18 08:15:35;;;;;;;;;;;;;;;3.45;92.98;102146.19;4791477;29;20477;-80
2021/10/18 08:18:01;;;;;;;3.85;0.95;;;;;;;3.56;92.67;102145.31;4793639;29;19921;-80
2021/10/18 08:20:27;;;;;;;3.05;1.27;;;;;;;3.74;93.27;102151.84;4808808;29;20396;-80
2021/10/18 08:22:52;;;;;;;5.80;1.17;;;;;;;3.87;91.95;102157.03;4778678;29;20057;-80
2021/10/18 08:25:18;;;;;;;3.90;1.05;;;;;;;3.95;91.57;102149.31;4792128;29;20103;-80
2021/10/18 08:27:44;;;;;;;3.35;1.10;;;;;;;4.09;91.48;102154.38;4822459;29;20061;-80
2021/10/18 08:30:10;;;;;;;9.70;1.02;;;;;;;4.22;90.61;102156.88;4811116;29;20370;-81
2021/10/18 08:32:36;;;;;;;5.95;1.00;;;;;;;4.38;89.73;102157.34;4808562;29;20101;-81
2021/10/18 08:35:03;;;;;;;4.10;1.00;;;;;;;4.54;87.98;102158.75;4809195;29;20031;-81
2021/10/18 08:40:13;;;;;;;1.30;0.70;;;;;;;4.86;87.91;102159.56;4808453;29;20480;-80
2021/10/18 08:42:55;;;;;;;3.80;0.77;;;;;;;4.88;87.38;102144.28;4780382;29;20042;-80
2021/10/18 08:45:22;;;;;;;2.95;1.10;;;;;;;5.10;86.08;102159.34;4792446;29;20535;-81
2021/10/18 08:47:49;;;;;;;2.35;1.13;;;;;;;5.20;85.47;102159.41;4780769;30;20393;-81
2021/10/18 08:50:16;;;;;;;2.30;1.10;;;;;;;5.30;84.78;102156.78;4793485;30;20027;-81
2021/10/18 08:52:45;;;;;;;4.13;1.17;;;;;;;5.43;84.43;102160.09;4789600;29;20043;-82
2021/10/18 08:55:12;;;;;;;4.90;1.20;;;;;;;5.49;84.96;102164.88;4811329;29;20135;-81
2021/10/18 08:57:37;;;;;;;8.75;1.30;;;;;;;5.12;85.02;102098.66;4795413;29;20038;-81
2021/10/18 09:00:07;;;;;;;4.40;0.93;;;;;;;5.39;84.04;102134.63;4812950;29;20058;-81
2021/10/18 09:02:38;;;;;;;4.80;1.02;;;;;;;5.77;84.69;102178.53;4809615;29;20030;-81
2021/10/18 09:05:07;;;;;;;2.60;1.00;;;;;;;5.61;83.98;102142.47;4784720;29;20084;-81
2021/10/18 09:07:37;;;;;;;5.22;1.10;;;;;;;5.94;83.63;102185.09;4814004;29;20082;-81
2021/10/18 09:10:12;;;;;;;3.47;1.00;;;;;;;6.01;83.78;102175.56;4787866;29;20039;-80
2021/10/18 09:12:41;;;;;;;4.28;0.93;;;;;;;6.07;83.59;102188.38;4802366;29;20035;-81
2021/10/18 09:15:24;;;;;;;7.45;1.27;;;;;;;6.16;83.31;102178.69;4795386;29;20347;-81
2021/10/18 09:17:58;;;;;;;6.05;1.02;;;;;;;6.31;83.49;102180.00;4808126;29;20034;-81
2021/10/18 09:20:31;;;;;;;3.17;0.90;;;;;;;6.36;83.08;102188.47;4793873;30;20035;-80
2021/10/18 09:23:23;;;;;;;6.40;0.93;;;;;;;6.39;82.53;102176.63;4784896;29;20030;-81
2021/10/18 09:25:50;;;;;;;3.72;0.93;;;;;;;6.56;82.07;102192.84;4814232;29;20062;-81
2021/10/18 09:28:21;;;;;;;2.72;0.82;;;;;;;6.61;80.37;102194.25;4793816;29;20518;-81
2021/10/18 09:30:47;;;;;;;4.22;0.88;;;;;;;6.68;79.30;102190.03;4782417;29;20038;-81
2021/10/18 09:33:31;;;;;;;2.60;0.90;;;;;;;6.73;76.52;102191.31;4795310;29;20062;-80
2021/10/18 09:35:57;;;;;;;3.13;1.20;;;;;;;6.73;77.33;102179.78;4794702;29;20065;-81
2021/10/18 09:38:24;;;;;;;6.53;0.90;;;;;;;6.90;77.13;102200.47;4818848;29;20034;-81
2021/10/18 09:40:51;;;;;;;7.70;0.95;;;;;;;6.94;75.89;102193.84;4817740;29;20363;-80
2021/10/18 09:46:23;;;;;;;2.53;0.75;;;;;;;7.05;75.07;102193.72;4809358;29;19924;-81
2021/10/18 10:56:28;;;;;;;2.53;0.50;;;;;;;8.66;57.56;102196.22;4811399;29;20034;-81
2021/10/18 10:59:30;;;;;;;3.17;0.52;;;;;;;8.71;56.82;102193.94;4814874;29;20538;-80
2021/10/18 11:02:03;;;;;;;2.55;0.50;;;;;;;8.78;58.35;102199.53;4797049;29;20027;-80
2021/10/18 11:04:42;;;;;;;2.35;0.57;;;;;;;8.85;59.10;102198.75;4798231;29;20030;-81
2021/10/18 11:07:10;;;;;;;2.28;0.50;;;;;;;8.84;57.51;102194.38;4812164;29;20042;-81
2021/10/18 11:09:40;;;;;;;2.55;0.60;;;;;;;8.93;58.02;102198.81;4815408;29;20457;-80
2021/10/18 11:12:08;;;;;;;0.88;0.30;;;;;;;8.93;55.95;102193.44;4796273;29;20054;-81
2021/10/18 11:14:34;;;;;;;1.63;0.30;;;;;;;8.85;55.21;102179.97;4795885;29;20047;-81
2021/10/18 11:17:00;;;;;;;3.22;0.43;;;;;;;8.97;54.80;102193.13;4797020;29;20041;-81
2021/10/18 11:19:25;;;;;;;1.67;0.50;;;;;;;9.01;55.68;102197.22;4807667;29;20046;-81
2021/10/18 11:21:59;;;;;;;0.75;0.40;;;;;;;9.00;53.97;102192.81;4815467;29;20069;-81
2021/10/18 11:24:37;;;;;;;1.10;0.40;;;;;;;9.01;53.65;102187.31;4819670;29;20331;-81
2021/10/18 11:27:04;;;;;;;0.75;0.43;;;;;;;8.88;52.44;102184.19;4783453;29;20373;-81
2021/10/18 11:29:31;;;;;;;2.65;0.40;;;;;;;9.01;53.23;102191.84;4795540;29;20038;-80
2021/10/18 11:32:06;;;;;;;1.40;0.55;;;;;;;9.02;51.97;102189.00;4806619;29;20034;-81
2021/10/18 11:34:32;;;;;;;0.47;0.40;;;;;;;9.10;53.21;102188.22;4814390;29;20079;-80
2021/10/18 11:36:58;;;;;;;1.33;0.73;;;;;;;8.93;52.95;102161.22;4821295;29;20043;-80
2021/10/18 11:39:26;;;;;;;0.95;0.40;;;;;;;9.00;53.18;102187.47;4810465;29;20035;-81
2021/10/18 11:42:13;;;;;;;2.03;0.50;;;;;;;9.04;51.24;102183.47;4780121;29;20058;-81
2021/10/18 11:44:41;;;;;;;1.98;0.40;;;;;;;9.20;53.63;102178.22;4796011;29;20027;-80
2021/10/18 11:47:34;;;;;;;1.27;0.70;;;;;;;9.16;51.43;102182.22;4811181;29;20030;-80
2021/10/18 11:50:18;;;;;;;1.30;0.57;;;;;;;9.30;53.30;102183.50;4812912;29;20030;-80
2021/10/18 11:52:58;;;;;;;1.20;0.40;;;;;;;9.18;52.50;102158.75;4794470;29;20046;-81
2021/10/18 11:55:27;;;;;;;5.22;0.90;;;;;;;9.25;53.58;102162.50;4795558;29;20031;-80
2021/10/18 11:57:54;;;;;;;2.83;0.47;;;;;;;9.29;52.19;102177.28;4784371;29;20077;-80
2021/10/18 12:00:24;;;;;;;1.52;0.43;;;;;;;9.28;51.43;102180.97;4778985;30;20034;-80
2021/10/18 12:02:54;;;;;;;1.90;0.50;;;;;;;9.05;52.01;102136.84;4794607;30;20027;-80
2021/10/18 12:05:23;;;;;;;1.92;0.57;;;;;;;9.16;53.00;102128.50;4779203;30;20031;-80
2021/10/18 12:07:50;;;;;;;4.55;0.50;;;;;;;9.55;52.30;102182.66;4789399;29;20059;-81
2021/10/18 12:10:27;;;;;;;2.92;0.60;;;;;;;9.59;52.07;102183.19;4803102;29;20030;-80
2021/10/18 12:13:02;;;;;;;3.83;0.50;;;;;;;9.60;52.31;102182.19;4814635;29;20050;-80
2021/10/18 12:15:29;;;;;;;1.38;0.60;;;;;;;9.70;52.92;102184.75;4795628;29;20045;-81
2021/10/18 12:17:56;;;;;;;2.35;0.47;;;;;;;9.71;53.16;102171.19;4799022;29;20030;-81
2021/10/18 12:20:21;;;;;;;0.43;0.20;;;;;;;9.78;52.77;102180.28;4788238;29;20035;-80
2021/10/18 12:23:08;;;;;;;2.05;0.30;;;;;;;9.73;50.25;102173.69;4803433;29;20026;-80
2021/10/18 12:25:35;;;;;;;2.72;0.40;;;;;;;9.71;51.16;102176.56;4814956;29;20042;-80
2021/10/18 12:28:43;;;;;;;3.70;0.40;;;;;;;9.69;50.31;102164.28;4789086;29;20103;-80
2021/10/18 12:31:51;;;;;;;1.05;0.45;;;;;;;9.57;49.73;102166.38;4755522;29;20105;-81
2021/10/18 12:34:22;;;;;;;0.65;0.38;;;;;;;9.56;51.65;102170.06;4811079;29;20049;-80
2021/10/18 12:36:51;;;;;;;3.22;0.40;;;;;;;9.59;51.29;102159.00;4809587;29;20034;-80
2021/10/18 12:39:33;;;;;;;1.15;0.47;;;;;;;9.63;50.92;102169.28;4793278;29;20035;-79
2021/10/18 12:41:58;;;;;;;1.35;0.50;;;;;;;9.60;51.86;102166.94;4796244;29;20489;-81
2021/10/18 12:44:36;;;;;;;2.65;0.40;;;;;;;9.52;48.97;102166.84;4794440;29;20031;-80